createdAt,value
2022-08-04T00:01:40.383Z,96461.47
2022-08-04T00:04:20.466Z,96459.59
2022-08-04T00:07:03.013Z,96459.38
2022-08-04T00:09:40.588Z,96455.50
2022-08-04T00:12:12.347Z,96463.16
2022-08-04T00:14:49.360Z,96462.97
2022-08-04T00:17:22.746Z,96461.56
2022-08-04T00:19:57.329Z,96465.16
2022-08-04T00:22:30.592Z,96464.97
2022-08-04T00:25:02.517Z,96465.53
2022-08-04T00:27:31.226Z,96458.56
2022-08-04T00:30:00.197Z,96453.97
2022-08-04T00:32:34.646Z,96459.56
2022-08-04T00:35:03.935Z,96456.59
2022-08-04T00:37:34.849Z,96454.09
2022-08-04T00:40:10.400Z,96450.91
2022-08-04T00:42:58.403Z,96454.38
2022-08-04T00:46:16.118Z,96452.28
2022-08-04T00:49:16.680Z,96447.00
2022-08-04T00:52:31.987Z,96453.50
2022-08-04T00:54:57.602Z,96459.75
2022-08-04T00:57:37.675Z,96455.78
2022-08-04T01:00:10.891Z,96445.56
2022-08-04T01:02:52.618Z,96446.66
2022-08-04T01:05:37.640Z,96452.78
2022-08-04T01:08:27.712Z,96454.75
2022-08-04T01:11:12.731Z,96453.38
2022-08-04T01:14:09.969Z,96453.38
2022-08-04T01:16:51.022Z,96450.09
2022-08-04T01:19:49.885Z,96452.28
2022-08-04T01:23:00.532Z,96443.44
2022-08-04T01:26:00.125Z,96448.56
2022-08-04T01:28:42.437Z,96445.81
2022-08-04T01:31:22.787Z,96446.81
2022-08-04T01:33:58.468Z,96440.34
2022-08-04T01:36:35.913Z,96439.25
2022-08-04T01:39:25.751Z,96445.22
2022-08-04T01:41:57.693Z,96441.00
2022-08-04T01:44:29.595Z,96444.28
2022-08-04T01:47:01.376Z,96445.47
2022-08-04T01:49:40.583Z,96439.38
2022-08-04T01:52:12.036Z,96443.06
2022-08-04T01:54:43.275Z,96429.63
2022-08-04T01:57:45.967Z,96431.88
2022-08-04T02:00:02.081Z,96436.34
2022-08-04T02:02:34.327Z,96438.50
2022-08-04T02:05:02.761Z,96439.13
2022-08-04T02:07:51.301Z,96435.72
2022-08-04T02:10:29.226Z,96445.22
2022-08-04T02:13:12.425Z,96443.06
2022-08-04T02:15:54.451Z,96439.88
2022-08-04T02:18:31.622Z,96435.28
2022-08-04T02:21:02.018Z,96441.06
2022-08-04T02:23:38.811Z,96441.53
2022-08-04T02:26:19.304Z,96437.56
2022-08-04T02:29:01.966Z,96434.38
2022-08-04T02:31:34.400Z,96436.31
2022-08-04T02:34:13.741Z,96438.38
2022-08-04T02:36:43.898Z,96436.50
2022-08-04T02:39:13.783Z,96436.38
2022-08-04T02:41:42.349Z,96432.66
2022-08-04T02:44:11.447Z,96431.38
2022-08-04T02:46:42.322Z,96430.97
2022-08-04T02:49:12.424Z,96424.78
2022-08-04T02:51:43.645Z,96422.38
2022-08-04T02:54:12.165Z,96420.56
2022-08-04T02:56:41.789Z,96417.09
2022-08-04T02:59:12.743Z,96421.38
2022-08-04T03:01:57.600Z,96433.13
2022-08-04T03:04:46.119Z,96423.25
2022-08-04T03:07:46.632Z,96420.38
2022-08-04T03:10:58.058Z,96423.72
2022-08-04T03:13:59.087Z,96429.28
2022-08-04T03:16:52.893Z,96419.81
2022-08-04T03:20:11.655Z,96424.84
2022-08-04T03:23:14.268Z,96425.88
2022-08-04T03:26:24.215Z,96425.00
2022-08-04T03:29:47.152Z,96428.91
2022-08-04T03:33:37.035Z,96423.63
2022-08-04T03:37:18.804Z,96424.16
2022-08-04T03:40:36.528Z,96436.56
2022-08-04T03:43:57.889Z,96426.88
2022-08-04T03:47:06.797Z,96432.34
2022-08-04T03:50:23.831Z,96427.56
2022-08-04T03:53:34.480Z,96435.09
2022-08-04T03:56:50.165Z,96427.03
2022-08-04T03:59:49.136Z,96429.16
2022-08-04T04:02:59.083Z,96431.84
2022-08-04T04:06:15.104Z,96427.13
2022-08-04T04:09:03.688Z,96425.00
2022-08-04T04:12:04.360Z,96423.16
2022-08-04T04:14:54.700Z,96421.31
2022-08-04T04:17:52.065Z,96416.47
2022-08-04T04:21:00.003Z,96417.13
2022-08-04T04:24:13.831Z,96425.22
2022-08-04T04:26:59.989Z,96428.41
2022-08-04T04:29:59.451Z,96424.91
2022-08-04T04:32:53.969Z,96430.28
2022-08-04T04:35:38.526Z,96430.53
2022-08-04T04:38:31.765Z,96424.00
2022-08-04T04:41:32.435Z,96430.16
2022-08-04T04:44:42.787Z,96425.25
2022-08-04T04:47:16.997Z,96425.53
2022-08-04T04:50:14.438Z,96428.16
2022-08-04T04:52:48.757Z,96436.44
2022-08-04T04:55:23.579Z,96438.28
2022-08-04T04:57:57.667Z,96437.69
2022-08-04T05:00:43.248Z,96441.97
2022-08-04T05:03:50.998Z,96441.41
2022-08-04T05:06:54.239Z,96435.22
2022-08-04T05:09:44.193Z,96436.75
2022-08-04T05:14:31.420Z,96440.19
2022-08-04T05:15:46.443Z,96444.38
2022-08-04T05:18:23.254Z,96442.41
2022-08-04T05:20:59.415Z,96441.84
2022-08-04T05:23:31.715Z,96440.47
2022-08-04T05:26:06.068Z,96444.69
2022-08-04T05:28:40.344Z,96439.50
2022-08-04T05:31:16.901Z,96445.91
2022-08-04T05:33:49.961Z,96443.13
2022-08-04T05:36:40.156Z,96444.13
2022-08-04T05:39:14.121Z,96444.66
2022-08-04T05:41:45.555Z,96443.75
2022-08-04T05:44:17.854Z,96437.31
2022-08-04T05:46:53.679Z,96442.63
2022-08-04T05:49:24.477Z,96439.88
2022-08-04T05:51:55.655Z,96443.25
2022-08-04T05:54:25.545Z,96437.50
2022-08-04T05:56:55.279Z,96447.09
2022-08-04T05:59:25.609Z,96445.13
2022-08-04T06:01:58.803Z,96441.75
2022-08-04T06:04:36.372Z,96444.53
2022-08-04T06:07:04.902Z,96446.06
2022-08-04T06:09:33.515Z,96437.59
2022-08-04T06:12:05.005Z,96445.81
2022-08-04T06:14:44.581Z,96448.91
2022-08-04T06:19:56.326Z,96453.59
2022-08-04T06:20:19.037Z,96443.63
2022-08-04T06:22:55.097Z,96442.16
2022-08-04T06:25:30.625Z,96438.16
2022-08-04T06:28:00.694Z,96441.53
2022-08-04T06:30:32.396Z,96447.03
2022-08-04T06:33:13.392Z,96443.03
2022-08-04T06:35:42.637Z,96451.03
2022-08-04T06:38:12.311Z,96449.81
2022-08-04T06:40:40.875Z,96446.41
2022-08-04T06:43:09.255Z,96446.19
2022-08-04T06:45:41.243Z,96451.34
2022-08-04T06:48:16.871Z,96444.75
2022-08-04T06:51:25.045Z,96450.09
2022-08-04T06:53:37.113Z,96456.97
2022-08-04T06:56:06.107Z,96443.78
2022-08-04T06:58:35.071Z,96461.94
2022-08-04T07:01:05.216Z,96448.69
2022-08-04T07:03:35.913Z,96455.19
2022-08-04T07:06:14.058Z,96463.53
2022-08-04T07:08:43.927Z,96451.84
2022-08-04T07:11:13.351Z,96461.13
2022-08-04T07:13:45.201Z,96456.25
2022-08-04T07:16:16.480Z,96458.25
2022-08-04T07:18:46.032Z,96455.25
2022-08-04T07:21:23.728Z,96452.41
2022-08-04T07:23:52.241Z,96453.84
2022-08-04T07:26:20.400Z,96448.16
2022-08-04T07:28:48.541Z,96445.44
2022-08-04T07:31:33.128Z,96452.78
2022-08-04T07:34:11.572Z,96444.38
2022-08-04T07:36:53.120Z,96449.47
2022-08-04T07:39:28.537Z,96451.06
2022-08-04T07:42:03.921Z,96446.41
2022-08-04T07:44:33.032Z,96451.81
2022-08-04T07:47:02.454Z,96446.72
2022-08-04T07:49:56.301Z,96444.00
2022-08-04T07:52:21.715Z,96440.16
2022-08-04T07:54:51.437Z,96444.13
2022-08-04T07:57:41.796Z,96447.72
2022-08-04T08:00:10.991Z,96441.47
2022-08-04T08:02:42.797Z,96450.66
2022-08-04T08:05:16.750Z,96443.63
2022-08-04T08:07:50.432Z,96444.41
2022-08-04T08:10:24.072Z,96440.53
2022-08-04T08:12:52.824Z,96441.94
2022-08-04T08:15:21.961Z,96440.44
2022-08-04T08:17:58.640Z,96443.50
2022-08-04T08:20:31.891Z,96438.75
2022-08-04T08:23:01.795Z,96430.88
2022-08-04T08:25:32.209Z,96431.81
2022-08-04T08:28:00.862Z,96432.22
2022-08-04T08:30:31.471Z,96434.47
2022-08-04T08:33:05.573Z,96432.56
2022-08-04T08:35:54.817Z,96429.56
2022-08-04T08:38:39.798Z,96427.38
2022-08-04T08:42:05.793Z,96429.75
2022-08-04T08:45:17.948Z,96424.69
2022-08-04T08:48:28.585Z,96429.78
2022-08-04T08:51:38.729Z,96432.75
2022-08-04T08:54:40.100Z,96432.75
2022-08-04T08:57:34.883Z,96428.91
2022-08-04T09:00:18.871Z,96438.03
2022-08-04T09:03:28.074Z,96437.13
2022-08-04T09:06:29.072Z,96429.78
2022-08-04T09:09:14.903Z,96428.88
2022-08-04T09:11:50.940Z,96439.16
2022-08-04T09:14:25.778Z,96434.75
2022-08-04T09:17:02.684Z,96432.56
2022-08-04T09:19:40.524Z,96437.25
2022-08-04T09:22:21.485Z,96433.47
2022-08-04T09:24:58.695Z,96432.78
2022-08-04T09:27:36.480Z,96433.28
2022-08-04T09:30:06.972Z,96426.34
2022-08-04T09:32:53.057Z,96430.56
2022-08-04T09:35:34.314Z,96438.41
2022-08-04T09:38:17.369Z,96433.56
2022-08-04T09:40:57.088Z,96414.94
2022-08-04T09:43:59.012Z,96422.88
2022-08-04T09:46:41.578Z,96418.53
2022-08-04T09:49:18.818Z,96417.50
2022-08-04T09:52:08.570Z,96414.66
2022-08-04T09:54:52.658Z,96411.13
2022-08-04T09:57:40.091Z,96412.44
2022-08-04T10:00:16.508Z,96406.63
2022-08-04T10:02:51.821Z,96405.94
2022-08-04T10:05:26.186Z,96412.19
2022-08-04T10:08:17.253Z,96409.34
2022-08-04T10:11:00.881Z,96404.63
2022-08-04T10:13:48.709Z,96400.34
2022-08-04T10:16:38.773Z,96395.47
2022-08-04T10:19:25.507Z,96396.16
2022-08-04T10:22:29.826Z,96393.94
2022-08-04T10:25:44.452Z,96388.78
2022-08-04T10:28:10.128Z,96387.28
2022-08-04T10:30:44.170Z,96383.84
2022-08-04T10:33:24.088Z,96383.59
2022-08-04T10:36:01.131Z,96384.44
2022-08-04T10:38:40.639Z,96385.16
2022-08-04T10:41:17.931Z,96389.19
2022-08-04T10:43:57.593Z,96386.03
2022-08-04T10:46:32.129Z,96384.69
2022-08-04T10:49:05.316Z,96382.13
2022-08-04T10:51:57.263Z,96378.56
2022-08-04T10:54:35.039Z,96374.25
2022-08-04T10:57:12.109Z,96380.44
2022-08-04T10:59:52.354Z,96379.41
2022-08-04T11:02:44.193Z,96389.06
2022-08-04T11:05:30.109Z,96383.59
2022-08-04T11:08:07.682Z,96377.47
2022-08-04T11:10:46.448Z,96387.16
2022-08-04T11:13:29.409Z,96386.94
2022-08-04T11:16:06.139Z,96380.03
2022-08-04T11:18:54.618Z,96382.28
2022-08-04T11:21:33.172Z,96388.94
2022-08-04T11:24:07.767Z,96390.13
2022-08-04T11:26:46.839Z,96385.00
2022-08-04T11:29:26.595Z,96393.66
2022-08-04T11:32:03.138Z,96398.34
2022-08-04T11:34:35.204Z,96394.50
2022-08-04T11:37:14.035Z,96390.59
2022-08-04T11:39:49.909Z,96390.06
2022-08-04T11:42:24.461Z,96391.03
2022-08-04T11:45:00.660Z,96388.00
2022-08-04T11:47:33.963Z,96382.25
2022-08-04T11:50:09.658Z,96384.31
2022-08-04T11:52:43.495Z,96380.50
2022-08-04T11:55:16.383Z,96375.94
2022-08-04T11:57:45.462Z,96383.91
2022-08-04T12:00:23.308Z,96376.84
2022-08-04T12:03:13.481Z,96375.25
2022-08-04T12:05:52.499Z,96364.56
2022-08-04T12:08:37.323Z,96364.13
2022-08-04T12:11:22.561Z,96364.97
2022-08-04T12:14:05.350Z,96371.59
2022-08-04T12:16:43.367Z,96374.88
2022-08-04T12:19:22.569Z,96365.41
2022-08-04T12:21:59.952Z,96365.06
2022-08-04T12:24:35.316Z,96365.97
2022-08-04T12:27:18.170Z,96364.44
2022-08-04T12:30:54.167Z,96366.66
2022-08-04T12:32:48.379Z,96364.34
2022-08-04T12:35:30.816Z,96357.69
2022-08-04T12:38:05.948Z,96364.97
2022-08-04T12:40:41.694Z,96359.53
2022-08-04T12:43:16.002Z,96358.00
2022-08-04T12:45:48.549Z,96355.16
2022-08-04T12:48:21.370Z,96361.81
2022-08-04T12:50:54.778Z,96354.13
2022-08-04T12:53:31.832Z,96361.06
2022-08-04T12:56:02.626Z,96342.19
2022-08-04T12:58:41.826Z,96353.19
2022-08-04T13:02:08.470Z,96351.91
2022-08-04T13:04:12.960Z,96345.72
2022-08-04T13:06:44.423Z,96345.19
2022-08-04T13:09:20.119Z,96351.66
2022-08-04T13:11:54.987Z,96340.66
2022-08-04T13:14:27.628Z,96340.66
2022-08-04T13:17:00.070Z,96342.34
2022-08-04T13:19:29.609Z,96339.41
2022-08-04T13:22:02.868Z,96341.97
2022-08-04T13:24:56.241Z,96336.78
2022-08-04T13:27:24.362Z,96334.50
2022-08-04T13:29:59.932Z,96333.66
2022-08-04T13:32:34.827Z,96334.88
2022-08-04T13:35:05.784Z,96335.66
2022-08-04T13:37:39.105Z,96323.66
2022-08-04T13:40:12.878Z,96328.38
2022-08-04T13:42:47.462Z,96331.66
2022-08-04T13:45:19.809Z,96331.72
2022-08-04T13:47:51.593Z,96329.16
2022-08-04T13:50:26.188Z,96322.06
2022-08-04T13:52:57.831Z,96318.34
2022-08-04T13:55:30.190Z,96310.72
2022-08-04T13:58:05.138Z,96312.47
2022-08-04T14:00:46.390Z,96308.53
2022-08-04T14:03:26.068Z,96305.66
2022-08-04T14:06:17.987Z,96310.28
2022-08-04T14:08:54.779Z,96306.34
2022-08-04T14:12:09.022Z,96301.59
2022-08-04T14:14:24.472Z,96305.63
2022-08-04T14:17:02.281Z,96302.50
2022-08-04T14:19:49.007Z,96304.84
2022-08-04T14:22:34.665Z,96297.09
2022-08-04T14:25:15.800Z,96295.59
2022-08-04T14:27:48.500Z,96293.81
2022-08-04T14:30:26.590Z,96295.19
2022-08-04T14:34:01.141Z,96286.66
2022-08-04T14:35:59.462Z,96288.22
2022-08-04T14:38:46.585Z,96285.13
2022-08-04T14:41:18.979Z,96279.69
2022-08-04T14:43:50.156Z,96289.25
2022-08-04T14:46:19.065Z,96279.50
2022-08-04T14:49:10.433Z,96277.91
2022-08-04T14:51:42.173Z,96279.13
2022-08-04T14:54:17.690Z,96273.94
2022-08-04T14:56:57.858Z,96267.75
2022-08-04T14:59:27.238Z,96262.97
2022-08-04T15:02:00.148Z,96265.22
2022-08-04T15:04:31.215Z,96273.56
2022-08-04T15:07:00.430Z,96268.28
2022-08-04T15:09:29.630Z,96264.38
2022-08-04T15:11:59.165Z,96271.72
2022-08-04T15:14:36.753Z,96270.28
2022-08-04T15:17:27.162Z,96268.84
2022-08-04T15:19:57.524Z,96269.22
2022-08-04T15:22:25.651Z,96266.69
2022-08-04T15:24:55.488Z,96270.91
2022-08-04T15:27:29.818Z,96264.31
2022-08-04T15:30:02.990Z,96269.50
2022-08-04T15:32:33.226Z,96267.25
2022-08-04T15:35:10.533Z,96267.91
2022-08-04T15:37:53.331Z,96265.91
2022-08-04T15:40:33.519Z,96268.69
2022-08-04T15:43:22.636Z,96266.38
2022-08-04T15:46:34.923Z,96261.03
2022-08-04T15:48:41.296Z,96252.03
2022-08-04T15:51:15.209Z,96256.06
2022-08-04T15:54:30.753Z,96250.88
2022-08-04T15:57:02.719Z,96249.31
2022-08-04T16:00:11.283Z,96245.66
2022-08-04T16:02:44.205Z,96250.16
2022-08-04T16:05:45.559Z,96242.00
2022-08-04T16:08:18.039Z,96232.25
2022-08-04T16:10:50.704Z,96237.91
2022-08-04T16:13:22.278Z,96233.53
2022-08-04T16:15:54.549Z,96230.31
2022-08-04T16:18:43.535Z,96233.09
2022-08-04T16:21:24.730Z,96237.47
2022-08-04T16:24:22.130Z,96233.03
2022-08-04T16:26:56.866Z,96226.34
2022-08-04T16:29:35.050Z,96220.88
2022-08-04T16:32:22.903Z,96224.84
2022-08-04T16:34:59.590Z,96218.19
2022-08-04T16:37:37.590Z,96219.31
2022-08-04T16:40:36.978Z,96226.50
2022-08-04T16:43:09.683Z,96216.19
2022-08-04T16:45:46.887Z,96215.59
2022-08-04T16:48:17.672Z,96222.63
2022-08-04T16:51:07.365Z,96215.63
2022-08-04T16:53:53.316Z,96218.31
2022-08-04T16:56:32.963Z,96210.84
2022-08-04T16:59:09.019Z,96199.38
2022-08-04T17:01:37.803Z,96210.09
2022-08-04T17:04:07.767Z,96199.91
2022-08-04T17:06:39.343Z,96206.16
2022-08-04T17:09:13.593Z,96204.06
2022-08-04T17:11:42.655Z,96203.19
2022-08-04T17:14:11.035Z,96203.28
2022-08-04T17:16:41.753Z,96202.78
2022-08-04T17:19:24.140Z,96203.91
2022-08-04T17:22:04.423Z,96204.56
2022-08-04T17:24:34.981Z,96202.06
2022-08-04T17:27:04.430Z,96197.31
2022-08-04T17:29:51.697Z,96200.41
2022-08-04T17:32:23.113Z,96198.41
2022-08-04T17:34:57.187Z,96192.16
2022-08-04T17:37:38.046Z,96204.19
2022-08-04T17:40:13.989Z,96194.47
2022-08-04T17:42:45.235Z,96199.09
2022-08-04T17:48:24.602Z,96201.22
2022-08-04T17:50:54.685Z,96200.25
2022-08-04T17:54:02.907Z,96199.16
2022-08-04T17:56:43.083Z,96201.00
2022-08-04T17:59:56.931Z,96206.63
2022-08-04T18:02:12.098Z,96204.88
2022-08-04T18:05:07.163Z,96199.78
2022-08-04T18:08:39.958Z,96204.31
2022-08-04T18:10:51.755Z,96211.94
2022-08-04T18:13:26.846Z,96211.88
2022-08-04T18:16:04.616Z,96215.28
2022-08-04T18:18:33.052Z,96217.03
2022-08-04T18:21:03.415Z,96215.72
2022-08-04T18:23:34.249Z,96218.34
2022-08-04T18:26:11.601Z,96218.84
2022-08-04T18:28:42.246Z,96221.56
2022-08-04T18:31:10.276Z,96224.91
2022-08-04T18:33:41.527Z,96221.72
2022-08-04T18:36:34.877Z,96231.69
2022-08-04T18:39:12.533Z,96226.16
2022-08-04T18:42:00.783Z,96235.25
2022-08-04T18:44:31.579Z,96233.56
2022-08-04T18:52:36.720Z,96242.84
2022-08-04T18:55:55.631Z,96238.09
2022-08-04T18:58:07.197Z,96240.16
2022-08-04T19:00:36.637Z,96242.63
2022-08-04T19:03:05.452Z,96238.22
2022-08-04T19:05:38.079Z,96236.91
2022-08-04T19:08:33.345Z,96252.31
2022-08-04T19:11:01.108Z,96243.94
2022-08-04T19:16:40.670Z,96252.91
2022-08-04T19:19:10.319Z,96255.06
2022-08-04T19:21:59.617Z,96250.66
2022-08-04T19:24:34.069Z,96265.94
2022-08-04T19:27:08.285Z,96266.34
2022-08-04T19:29:41.243Z,96266.34
2022-08-04T19:32:14.577Z,96270.88
2022-08-04T19:34:47.073Z,96272.75
2022-08-04T19:37:57.435Z,96278.59
2022-08-04T19:40:09.533Z,96272.81
2022-08-04T19:42:40.270Z,96274.63
2022-08-04T19:45:15.876Z,96277.53
2022-08-04T19:48:21.577Z,96282.41
2022-08-04T19:50:33.226Z,96276.66
2022-08-04T19:53:01.528Z,96289.84
2022-08-04T19:55:37.371Z,96289.31
2022-08-04T19:58:09.524Z,96290.25
2022-08-04T20:00:39.229Z,96292.16
2022-08-04T20:03:11.711Z,96286.63
2022-08-04T20:05:53.642Z,96294.38
2022-08-04T20:08:28.339Z,96299.09
2022-08-04T20:10:56.605Z,96294.69
2022-08-04T20:13:37.279Z,96291.28
2022-08-04T20:16:26.213Z,96292.97
2022-08-04T20:19:00.845Z,96294.56
2022-08-04T20:24:39.201Z,96288.94
2022-08-04T20:27:11.600Z,96288.47
2022-08-04T20:32:35.198Z,96294.09
2022-08-04T20:35:03.881Z,96288.41
2022-08-04T20:37:55.504Z,96295.00
2022-08-04T20:40:20.152Z,96298.06
2022-08-04T20:42:50.408Z,96295.88
2022-08-04T20:45:22.781Z,96296.06
2022-08-04T20:47:53.209Z,96298.81
2022-08-04T20:50:29.646Z,96290.09
2022-08-04T20:52:58.166Z,96295.50
2022-08-04T20:55:29.527Z,96292.34
2022-08-04T20:58:03.196Z,96292.81
2022-08-04T21:00:33.612Z,96294.44
2022-08-04T21:03:02.807Z,96290.91
2022-08-04T21:05:31.501Z,96285.03
2022-08-04T21:08:00.202Z,96291.88
2022-08-04T21:10:30.402Z,96286.03
2022-08-04T21:12:59.140Z,96281.88
2022-08-04T21:15:57.832Z,96277.44
2022-08-04T21:18:17.173Z,96279.53
2022-08-04T21:20:48.245Z,96284.78
2022-08-04T21:23:16.668Z,96281.13
2022-08-04T21:25:45.589Z,96282.91
2022-08-04T21:28:20.573Z,96281.19
2022-08-04T21:30:52.408Z,96278.81
2022-08-04T21:33:50.044Z,96287.56
2022-08-04T21:36:14.893Z,96281.69
2022-08-04T21:38:51.225Z,96276.28
2022-08-04T21:41:24.771Z,96278.19
2022-08-04T21:43:53.554Z,96288.06
2022-08-04T21:46:22.304Z,96279.47
2022-08-04T21:48:51.962Z,96277.44
2022-08-04T21:51:57.066Z,96279.66
2022-08-04T21:54:15.121Z,96270.91
2022-08-04T21:56:51.570Z,96272.66
2022-08-04T21:59:23.540Z,96278.41
2022-08-04T22:02:00.993Z,96276.81
2022-08-04T22:04:31.375Z,96274.94
2022-08-04T22:07:03.038Z,96284.59
2022-08-04T22:09:40.866Z,96288.59
2022-08-04T22:12:11.968Z,96290.19
2022-08-04T22:14:40.658Z,96290.34
2022-08-04T22:17:13.712Z,96288.78
2022-08-04T22:19:55.744Z,96287.81
2022-08-04T22:22:29.100Z,96282.09
2022-08-04T22:25:01.796Z,96290.03
2022-08-04T22:27:55.125Z,96283.19
2022-08-04T22:30:24.210Z,96290.63
2022-08-04T22:32:57.339Z,96289.06
2022-08-04T22:35:30.939Z,96288.88
2022-08-04T22:38:25.338Z,96285.53
2022-08-04T22:41:02.798Z,96277.28
2022-08-04T22:43:34.408Z,96279.66
2022-08-04T22:46:06.380Z,96273.47
2022-08-04T22:48:36.906Z,96273.63
2022-08-04T22:51:08.298Z,96270.78
2022-08-04T22:53:37.230Z,96267.59
2022-08-04T22:56:09.946Z,96263.94
2022-08-04T22:58:45.311Z,96269.94
2022-08-04T23:01:15.564Z,96264.72
2022-08-04T23:03:55.041Z,96274.84
2022-08-04T23:06:28.731Z,96277.41
2022-08-04T23:08:57.455Z,96272.47
2022-08-04T23:11:35.627Z,96272.75
2022-08-04T23:14:06.055Z,96272.88
2022-08-04T23:16:40.770Z,96269.69
2022-08-04T23:19:15.162Z,96263.69
2022-08-04T23:21:47.987Z,96262.72
2022-08-04T23:24:30.268Z,96253.97
2022-08-04T23:26:58.753Z,96258.88
2022-08-04T23:29:27.402Z,96251.91
2022-08-04T23:32:00.004Z,96255.53
2022-08-04T23:34:29.446Z,96249.81
2022-08-04T23:36:59.472Z,96247.25
2022-08-04T23:40:03.899Z,96257.88
2022-08-04T23:42:21.332Z,96259.59
2022-08-04T23:44:50.290Z,96253.59
2022-08-04T23:48:16.192Z,96258.78
2022-08-04T23:50:09.766Z,96260.81
2022-08-04T23:52:39.153Z,96256.69
2022-08-04T23:55:18.888Z,96260.19
2022-08-04T23:58:16.830Z,96253.19
